sensor_id;sensor_type;location;lat;lon;timestamp;temperature;humidity
2054;DHT22;1032;52.542;13.440;2022-11-20T00:01:14;3.30;99.90
2054;DHT22;1032;52.542;13.440;2022-11-20T00:03:42;3.70;99.90
2054;DHT22;1032;52.542;13.440;2022-11-20T00:06:10;3.60;99.90
2054;DHT22;1032;52.542;13.440;2022-11-20T00:08:37;3.30;99.90
2054;DHT22;1032;52.542;13.440;2022-11-20T00:11:07;3.30;99.90
2054;DHT22;1032;52.542;13.440;2022-11-20T00:13:34;3.20;99.90
2054;DHT22;1032;52.542;13.440;2022-11-20T00:16:02;3.50;99.90
2054;DHT22;1032;52.542;13.440;2022-11-20T00:18:29;3.40;99.90
2054;DHT22;1032;52.542;13.440;2022-11-20T00:21:01;3.60;99.90
2054;DHT22;1032;52.542;13.440;2022-11-20T00:23:27;3.40;99.90
2054;DHT22;1032;52.542;13.440;2022-11-20T00:25:54;3.40;99.90
2054;DHT22;1032;52.542;13.440;2022-11-20T00:28:22;2.80;99.90
2054;DHT22;1032;52.542;13.440;2022-11-20T00:30:48;3.50;99.90
2054;DHT22;1032;52.542;13.440;2022-11-20T00:33:15;3.50;99.90
2054;DHT22;1032;52.542;13.440;2022-11-20T00:35:42;3.50;99.90
2054;DHT22;1032;52.542;13.440;2022-11-20T00:38:08;3.70;99.90
2054;DHT22;1032;52.542;13.440;2022-11-20T00:40:35;3.40;99.90
2054;DHT22;1032;52.542;13.440;2022-11-20T00:43:01;3.50;99.90
2054;DHT22;1032;52.542;13.440;2022-11-20T00:45:29;3.20;99.90
2054;DHT22;1032;52.542;13.440;2022-11-20T00:47:56;3.60;99.90
2054;DHT22;1032;52.542;13.440;2022-11-20T00:50:22;3.50;99.90
2054;DHT22;1032;52.542;13.440;2022-11-20T00:52:49;3.20;99.90
2054;DHT22;1032;52.542;13.440;2022-11-20T00:55:15;4.00;99.90
2054;DHT22;1032;52.542;13.440;2022-11-20T00:57:42;3.40;99.90
2054;DHT22;1032;52.542;13.440;2022-11-20T01:00:09;3.40;99.90
2054;DHT22;1032;52.542;13.440;2022-11-20T01:02:37;3.30;99.90
2054;DHT22;1032;52.542;13.440;2022-11-20T01:05:04;3.40;99.90
2054;DHT22;1032;52.542;13.440;2022-11-20T01:07:32;3.20;99.90
2054;DHT22;1032;52.542;13.440;2022-11-20T01:09:58;3.40;99.90
2054;DHT22;1032;52.542;13.440;2022-11-20T01:12:25;3.40;99.90
2054;DHT22;1032;52.542;13.440;2022-11-20T01:14:51;4.00;99.90
2054;DHT22;1032;52.542;13.440;2022-11-20T01:17:18;3.50;99.90
2054;DHT22;1032;52.542;13.440;2022-11-20T01:19:48;3.70;99.90
2054;DHT22;1032;52.542;13.440;2022-11-20T01:22:15;3.30;99.90
2054;DHT22;1032;52.542;13.440;2022-11-20T01:24:45;3.40;99.90
2054;DHT22;1032;52.542;13.440;2022-11-20T01:27:12;3.30;99.90
2054;DHT22;1032;52.542;13.440;2022-11-20T01:29:39;3.60;99.90
2054;DHT22;1032;52.542;13.440;2022-11-20T01:32:05;2.70;99.90
2054;DHT22;1032;52.542;13.440;2022-11-20T01:34:32;3.20;99.90
2054;DHT22;1032;52.542;13.440;2022-11-20T01:37:00;3.30;99.90
2054;DHT22;1032;52.542;13.440;2022-11-20T01:39:27;3.50;99.90
2054;DHT22;1032;52.542;13.440;2022-11-20T01:41:55;3.60;99.90
2054;DHT22;1032;52.542;13.440;2022-11-20T01:44:53;2.80;99.90
2054;DHT22;1032;52.542;13.440;2022-11-20T01:47:27;2.70;99.90
2054;DHT22;1032;52.542;13.440;2022-11-20T01:49:58;3.70;99.90
2054;DHT22;1032;52.542;13.440;2022-11-20T01:52:30;3.40;99.90
2054;DHT22;1032;52.542;13.440;2022-11-20T01:55:03;3.60;99.90
2054;DHT22;1032;52.542;13.440;2022-11-20T01:57:31;3.50;99.90
2054;DHT22;1032;52.542;13.440;2022-11-20T02:00:03;3.60;99.90
2054;DHT22;1032;52.542;13.440;2022-11-20T02:02:39;3.30;99.90
2054;DHT22;1032;52.542;13.440;2022-11-20T02:05:14;3.60;99.90
2054;DHT22;1032;52.542;13.440;2022-11-20T02:07:45;3.40;99.90
2054;DHT22;1032;52.542;13.440;2022-11-20T02:10:13;3.30;99.90
2054;DHT22;1032;52.542;13.440;2022-11-20T02:12:40;3.30;99.90
2054;DHT22;1032;52.542;13.440;2022-11-20T02:15:27;3.50;99.90
2054;DHT22;1032;52.542;13.440;2022-11-20T02:17:53;3.60;99.90
2054;DHT22;1032;52.542;13.440;2022-11-20T02:20:20;3.10;99.90
2054;DHT22;1032;52.542;13.440;2022-11-20T02:22:52;3.30;99.90
2054;DHT22;1032;52.542;13.440;2022-11-20T02:25:23;3.40;99.90
2054;DHT22;1032;52.542;13.440;2022-11-20T02:27:51;3.20;99.90
2054;DHT22;1032;52.542;13.440;2022-11-20T02:30:17;3.80;99.90
2054;DHT22;1032;52.542;13.440;2022-11-20T02:32:44;3.20;99.90
2054;DHT22;1032;52.542;13.440;2022-11-20T02:35:39;3.40;99.90
2054;DHT22;1032;52.542;13.440;2022-11-20T02:38:06;3.50;99.90
2054;DHT22;1032;52.542;13.440;2022-11-20T02:40:34;3.30;99.90
2054;DHT22;1032;52.542;13.440;2022-11-20T02:43:01;3.10;99.90
2054;DHT22;1032;52.542;13.440;2022-11-20T02:45:27;3.40;99.90
2054;DHT22;1032;52.542;13.440;2022-11-20T02:47:54;3.10;99.90
2054;DHT22;1032;52.542;13.440;2022-11-20T02:50:21;3.40;99.90
2054;DHT22;1032;52.542;13.440;2022-11-20T02:52:47;3.30;99.90
2054;DHT22;1032;52.542;13.440;2022-11-20T02:55:14;3.50;99.90
2054;DHT22;1032;52.542;13.440;2022-11-20T02:57:42;2.90;99.90
2054;DHT22;1032;52.542;13.440;2022-11-20T03:00:10;2.80;99.90
2054;DHT22;1032;52.542;13.440;2022-11-20T03:02:36;3.30;99.90
2054;DHT22;1032;52.542;13.440;2022-11-20T03:05:03;3.30;99.90
2054;DHT22;1032;52.542;13.440;2022-11-20T03:07:30;3.40;99.90
2054;DHT22;1032;52.542;13.440;2022-11-20T03:09:57;3.90;99.90
2054;DHT22;1032;52.542;13.440;2022-11-20T03:12:23;3.20;99.90
2054;DHT22;1032;52.542;13.440;2022-11-20T03:14:51;3.20;99.90
2054;DHT22;1032;52.542;13.440;2022-11-20T03:17:18;3.30;99.90
2054;DHT22;1032;52.542;13.440;2022-11-20T03:19:44;3.30;99.90
2054;DHT22;1032;52.542;13.440;2022-11-20T03:22:11;3.20;99.90
2054;DHT22;1032;52.542;13.440;2022-11-20T03:24:37;3.60;99.90
2054;DHT22;1032;52.542;13.440;2022-11-20T03:27:04;3.50;99.90
2054;DHT22;1032;52.542;13.440;2022-11-20T03:29:30;3.20;99.90
2054;DHT22;1032;52.542;13.440;2022-11-20T03:31:59;3.10;99.90
2054;DHT22;1032;52.542;13.440;2022-11-20T03:34:25;3.30;99.90
2054;DHT22;1032;52.542;13.440;2022-11-20T03:36:52;3.50;99.90
2054;DHT22;1032;52.542;13.440;2022-11-20T03:39:18;3.20;99.90
2054;DHT22;1032;52.542;13.440;2022-11-20T03:41:45;3.40;99.90
2054;DHT22;1032;52.542;13.440;2022-11-20T03:44:12;2.80;99.90
2054;DHT22;1032;52.542;13.440;2022-11-20T03:46:38;3.20;99.90
2054;DHT22;1032;52.542;13.440;2022-11-20T03:49:07;2.70;99.90
2054;DHT22;1032;52.542;13.440;2022-11-20T03:51:34;2.80;99.90
2054;DHT22;1032;52.542;13.440;2022-11-20T03:54:03;3.30;99.90
2054;DHT22;1032;52.542;13.440;2022-11-20T03:56:32;3.30;99.90
2054;DHT22;1032;52.542;13.440;2022-11-20T03:58:59;3.20;99.90
2054;DHT22;1032;52.542;13.440;2022-11-20T04:01:28;3.00;99.90
2054;DHT22;1032;52.542;13.440;2022-11-20T04:03:56;3.20;99.90
2054;DHT22;1032;52.542;13.440;2022-11-20T04:06:26;3.80;99.90
2054;DHT22;1032;52.542;13.440;2022-11-20T04:08:54;3.00;99.90
2054;DHT22;1032;52.542;13.440;2022-11-20T04:11:22;3.10;99.90
2054;DHT22;1032;52.542;13.440;2022-11-20T04:13:50;3.10;99.90
2054;DHT22;1032;52.542;13.440;2022-11-20T04:16:17;3.10;99.90
2054;DHT22;1032;52.542;13.440;2022-11-20T04:18:44;2.90;99.90
2054;DHT22;1032;52.542;13.440;2022-11-20T04:21:11;3.70;99.90
2054;DHT22;1032;52.542;13.440;2022-11-20T04:23:39;3.00;99.90
2054;DHT22;1032;52.542;13.440;2022-11-20T04:26:08;3.80;99.90
2054;DHT22;1032;52.542;13.440;2022-11-20T04:28:36;3.30;99.90
2054;DHT22;1032;52.542;13.440;2022-11-20T04:31:04;2.50;99.90
2054;DHT22;1032;52.542;13.440;2022-11-20T04:33:31;3.00;99.90
2054;DHT22;1032;52.542;13.440;2022-11-20T04:36:01;3.20;99.90
2054;DHT22;1032;52.542;13.440;2022-11-20T04:38:28;3.00;99.90
2054;DHT22;1032;52.542;13.440;2022-11-20T04:40:57;3.00;99.90
2054;DHT22;1032;52.542;13.440;2022-11-20T04:43:24;3.20;99.90
2054;DHT22;1032;52.542;13.440;2022-11-20T04:45:51;3.20;99.90
2054;DHT22;1032;52.542;13.440;2022-11-20T04:48:17;3.10;99.90
2054;DHT22;1032;52.542;13.440;2022-11-20T04:50:44;3.50;99.90
2054;DHT22;1032;52.542;13.440;2022-11-20T04:53:11;3.10;99.90
2054;DHT22;1032;52.542;13.440;2022-11-20T04:55:37;3.00;99.90
2054;DHT22;1032;52.542;13.440;2022-11-20T04:58:05;3.10;99.90
2054;DHT22;1032;52.542;13.440;2022-11-20T05:00:32;2.80;99.90
2054;DHT22;1032;52.542;13.440;2022-11-20T05:02:59;2.40;99.90
2054;DHT22;1032;52.542;13.440;2022-11-20T05:05:25;2.80;99.90
2054;DHT22;1032;52.542;13.440;2022-11-20T05:07:52;2.90;99.90
2054;DHT22;1032;52.542;13.440;2022-11-20T05:10:19;2.90;99.90
2054;DHT22;1032;52.542;13.440;2022-11-20T05:12:45;2.80;99.90
2054;DHT22;1032;52.542;13.440;2022-11-20T05:15:13;2.90;99.90
2054;DHT22;1032;52.542;13.440;2022-11-20T05:17:40;2.90;99.90
2054;DHT22;1032;52.542;13.440;2022-11-20T05:20:07;2.80;99.90
2054;DHT22;1032;52.542;13.440;2022-11-20T05:22:34;3.00;99.90
2054;DHT22;1032;52.542;13.440;2022-11-20T05:25:01;2.90;99.90
2054;DHT22;1032;52.542;13.440;2022-11-20T05:27:27;2.80;99.90
2054;DHT22;1032;52.542;13.440;2022-11-20T05:29:54;2.90;99.90
2054;DHT22;1032;52.542;13.440;2022-11-20T05:32:22;3.00;99.90
2054;DHT22;1032;52.542;13.440;2022-11-20T05:34:50;3.50;99.90
2054;DHT22;1032;52.542;13.440;2022-11-20T05:37:17;2.80;99.90
2054;DHT22;1032;52.542;13.440;2022-11-20T05:39:43;3.00;99.90
2054;DHT22;1032;52.542;13.440;2022-11-20T05:42:10;2.40;99.90
2054;DHT22;1032;52.542;13.440;2022-11-20T05:44:54;2.90;99.90
2054;DHT22;1032;52.542;13.440;2022-11-20T05:47:22;2.40;99.90
2054;DHT22;1032;52.542;13.440;2022-11-20T05:49:49;2.90;99.90
2054;DHT22;1032;52.542;13.440;2022-11-20T05:52:15;3.00;99.90
2054;DHT22;1032;52.542;13.440;2022-11-20T05:54:42;3.00;99.90
2054;DHT22;1032;52.542;13.440;2022-11-20T05:57:08;2.90;99.90
2054;DHT22;1032;52.542;13.440;2022-11-20T05:59:35;2.20;99.90
2054;DHT22;1032;52.542;13.440;2022-11-20T06:02:02;2.80;99.90
2054;DHT22;1032;52.542;13.440;2022-11-20T06:04:30;2.90;99.90
2054;DHT22;1032;52.542;13.440;2022-11-20T06:06:56;3.50;99.90
2054;DHT22;1032;52.542;13.440;2022-11-20T06:09:23;2.80;99.90
2054;DHT22;1032;52.542;13.440;2022-11-20T06:11:49;2.90;99.90
2054;DHT22;1032;52.542;13.440;2022-11-20T06:14:16;3.00;99.90
2054;DHT22;1032;52.542;13.440;2022-11-20T06:16:42;2.80;99.90
2054;DHT22;1032;52.542;13.440;2022-11-20T06:19:09;2.20;99.90
2054;DHT22;1032;52.542;13.440;2022-11-20T06:21:37;2.70;99.90
2054;DHT22;1032;52.542;13.440;2022-11-20T06:24:04;2.80;99.90
2054;DHT22;1032;52.542;13.440;2022-11-20T06:26:31;2.80;99.90
2054;DHT22;1032;52.542;13.440;2022-11-20T06:28:57;3.00;99.90
2054;DHT22;1032;52.542;13.440;2022-11-20T06:31:25;2.80;99.90
2054;DHT22;1032;52.542;13.440;2022-11-20T06:33:52;2.80;99.90
2054;DHT22;1032;52.542;13.440;2022-11-20T06:36:20;2.90;99.90
2054;DHT22;1032;52.542;13.440;2022-11-20T06:38:49;2.30;99.90
2054;DHT22;1032;52.542;13.440;2022-11-20T06:41:17;2.90;99.90
2054;DHT22;1032;52.542;13.440;2022-11-20T06:43:44;2.60;99.90
2054;DHT22;1032;52.542;13.440;2022-11-20T06:46:12;2.80;99.90
2054;DHT22;1032;52.542;13.440;2022-11-20T06:48:39;2.90;99.90
2054;DHT22;1032;52.542;13.440;2022-11-20T06:51:07;2.60;99.90
2054;DHT22;1032;52.542;13.440;2022-11-20T06:53:34;2.80;99.90
2054;DHT22;1032;52.542;13.440;2022-11-20T06:56:02;2.60;99.90
2054;DHT22;1032;52.542;13.440;2022-11-20T06:58:31;2.90;99.90
2054;DHT22;1032;52.542;13.440;2022-11-20T07:00:58;2.80;99.90
2054;DHT22;1032;52.542;13.440;2022-11-20T07:03:25;2.90;99.90
2054;DHT22;1032;52.542;13.440;2022-11-20T07:05:54;3.20;99.90
2054;DHT22;1032;52.542;13.440;2022-11-20T07:08:20;2.80;99.90
2054;DHT22;1032;52.542;13.440;2022-11-20T07:10:47;3.00;99.90
2054;DHT22;1032;52.542;13.440;2022-11-20T07:13:15;2.50;99.90
2054;DHT22;1032;52.542;13.440;2022-11-20T07:15:41;2.90;99.90
2054;DHT22;1032;52.542;13.440;2022-11-20T07:18:08;2.80;99.90
2054;DHT22;1032;52.542;13.440;2022-11-20T07:20:35;2.70;99.90
2054;DHT22;1032;52.542;13.440;2022-11-20T07:23:01;3.00;99.90
2054;DHT22;1032;52.542;13.440;2022-11-20T07:25:28;2.60;99.90
2054;DHT22;1032;52.542;13.440;2022-11-20T07:27:57;2.70;99.90
2054;DHT22;1032;52.542;13.440;2022-11-20T07:30:25;3.00;99.90
2054;DHT22;1032;52.542;13.440;2022-11-20T07:32:52;3.20;99.90
2054;DHT22;1032;52.542;13.440;2022-11-20T07:35:19;2.50;99.90
2054;DHT22;1032;52.542;13.440;2022-11-20T07:37:46;2.80;99.90
2054;DHT22;1032;52.542;13.440;2022-11-20T07:40:14;2.90;99.90
2054;DHT22;1032;52.542;13.440;2022-11-20T07:42:47;2.70;99.90
2054;DHT22;1032;52.542;13.440;2022-11-20T07:45:14;2.40;99.90
2054;DHT22;1032;52.542;13.440;2022-11-20T07:47:42;2.80;99.90
2054;DHT22;1032;52.542;13.440;2022-11-20T07:50:09;3.10;99.90
2054;DHT22;1032;52.542;13.440;2022-11-20T07:52:35;3.00;99.90
2054;DHT22;1032;52.542;13.440;2022-11-20T07:55:02;3.10;99.90
2054;DHT22;1032;52.542;13.440;2022-11-20T07:57:29;3.10;99.90
2054;DHT22;1032;52.542;13.440;2022-11-20T07:59:55;2.90;99.90
2054;DHT22;1032;52.542;13.440;2022-11-20T08:02:22;2.70;99.90
2054;DHT22;1032;52.542;13.440;2022-11-20T08:04:51;3.00;99.90
2054;DHT22;1032;52.542;13.440;2022-11-20T08:07:17;3.10;99.90
2054;DHT22;1032;52.542;13.440;2022-11-20T08:09:44;2.90;99.90
2054;DHT22;1032;52.542;13.440;2022-11-20T08:12:17;3.00;99.90
2054;DHT22;1032;52.542;13.440;2022-11-20T08:15:02;2.70;99.90
2054;DHT22;1032;52.542;13.440;2022-11-20T08:17:29;3.10;99.90
2054;DHT22;1032;52.542;13.440;2022-11-20T08:19:57;3.60;99.90
2054;DHT22;1032;52.542;13.440;2022-11-20T08:22:23;3.00;99.90
2054;DHT22;1032;52.542;13.440;2022-11-20T08:24:50;3.10;99.90
2054;DHT22;1032;52.542;13.440;2022-11-20T08:27:17;3.20;99.90
2054;DHT22;1032;52.542;13.440;2022-11-20T08:29:43;3.10;99.90
2054;DHT22;1032;52.542;13.440;2022-11-20T08:32:10;2.80;99.90
2054;DHT22;1032;52.542;13.440;2022-11-20T08:34:36;3.40;99.90
2054;DHT22;1032;52.542;13.440;2022-11-20T08:37:04;3.40;99.90
2054;DHT22;1032;52.542;13.440;2022-11-20T08:39:31;2.50;99.90
2054;DHT22;1032;52.542;13.440;2022-11-20T08:41:57;3.10;99.90
2054;DHT22;1032;52.542;13.440;2022-11-20T08:44:24;3.30;99.90
2054;DHT22;1032;52.542;13.440;2022-11-20T08:46:51;3.20;99.90
2054;DHT22;1032;52.542;13.440;2022-11-20T08:49:25;3.10;99.90
2054;DHT22;1032;52.542;13.440;2022-11-20T08:51:56;3.30;99.90
2054;DHT22;1032;52.542;13.440;2022-11-20T08:54:26;3.10;99.90
2054;DHT22;1032;52.542;13.440;2022-11-20T08:56:52;3.20;99.90
2054;DHT22;1032;52.542;13.440;2022-11-20T08:59:19;3.70;99.90
2054;DHT22;1032;52.542;13.440;2022-11-20T09:01:46;3.30;99.90
2054;DHT22;1032;52.542;13.440;2022-11-20T09:04:12;3.20;99.90
2054;DHT22;1032;52.542;13.440;2022-11-20T09:06:40;3.30;99.90
2054;DHT22;1032;52.542;13.440;2022-11-20T09:09:06;3.30;99.90
2054;DHT22;1032;52.542;13.440;2022-11-20T09:11:35;3.30;99.90
2054;DHT22;1032;52.542;13.440;2022-11-20T09:14:02;3.50;99.90
2054;DHT22;1032;52.542;13.440;2022-11-20T09:16:29;3.20;99.90
2054;DHT22;1032;52.542;13.440;2022-11-20T09:18:56;3.40;99.90
2054;DHT22;1032;52.542;13.440;2022-11-20T09:21:23;3.70;99.90
2054;DHT22;1032;52.542;13.440;2022-11-20T09:23:50;3.30;99.90
2054;DHT22;1032;52.542;13.440;2022-11-20T09:26:16;3.40;99.90
2054;DHT22;1032;52.542;13.440;2022-11-20T09:28:44;3.40;99.90
2054;DHT22;1032;52.542;13.440;2022-11-20T09:31:17;2.80;99.90
2054;DHT22;1032;52.542;13.440;2022-11-20T09:33:45;3.50;99.90
2054;DHT22;1032;52.542;13.440;2022-11-20T09:36:11;3.70;99.90
2054;DHT22;1032;52.542;13.440;2022-11-20T09:38:38;3.80;99.90
2054;DHT22;1032;52.542;13.440;2022-11-20T09:41:10;3.50;99.90
2054;DHT22;1032;52.542;13.440;2022-11-20T09:43:49;3.80;99.90
2054;DHT22;1032;52.542;13.440;2022-11-20T09:46:28;3.80;99.90
2054;DHT22;1032;52.542;13.440;2022-11-20T09:49:05;3.50;99.90
2054;DHT22;1032;52.542;13.440;2022-11-20T09:51:42;3.90;99.90
2054;DHT22;1032;52.542;13.440;2022-11-20T09:54:16;3.60;99.90
2054;DHT22;1032;52.542;13.440;2022-11-20T09:56:46;3.90;99.90
2054;DHT22;1032;52.542;13.440;2022-11-20T10:02:16;3.80;99.90
2054;DHT22;1032;52.542;13.440;2022-11-20T10:04:47;3.90;99.90
2054;DHT22;1032;52.542;13.440;2022-11-20T10:07:22;3.80;99.90
2054;DHT22;1032;52.542;13.440;2022-11-20T10:09:52;3.90;99.90
2054;DHT22;1032;52.542;13.440;2022-11-20T10:12:27;4.00;99.90
2054;DHT22;1032;52.542;13.440;2022-11-20T10:15:16;3.90;99.90
2054;DHT22;1032;52.542;13.440;2022-11-20T10:17:55;4.20;99.90
2054;DHT22;1032;52.542;13.440;2022-11-20T10:20:30;3.60;99.90
2054;DHT22;1032;52.542;13.440;2022-11-20T10:23:16;4.30;99.90
2054;DHT22;1032;52.542;13.440;2022-11-20T10:25:54;3.90;99.90
2054;DHT22;1032;52.542;13.440;2022-11-20T10:28:34;4.20;99.90
2054;DHT22;1032;52.542;13.440;2022-11-20T10:31:08;4.10;99.90
2054;DHT22;1032;52.542;13.440;2022-11-20T10:33:38;4.10;99.90
2054;DHT22;1032;52.542;13.440;2022-11-20T10:36:10;4.40;99.90
2054;DHT22;1032;52.542;13.440;2022-11-20T10:38:43;4.30;99.90
2054;DHT22;1032;52.542;13.440;2022-11-20T10:41:17;4.20;99.90
2054;DHT22;1032;52.542;13.440;2022-11-20T10:43:56;4.20;99.90
2054;DHT22;1032;52.542;13.440;2022-11-20T10:46:33;4.20;99.90
2054;DHT22;1032;52.542;13.440;2022-11-20T10:49:05;3.80;99.90
2054;DHT22;1032;52.542;13.440;2022-11-20T10:51:37;4.40;99.90
2054;DHT22;1032;52.542;13.440;2022-11-20T10:54:16;4.30;99.90
2054;DHT22;1032;52.542;13.440;2022-11-20T10:56:47;4.20;99.90
2054;DHT22;1032;52.542;13.440;2022-11-20T10:59:33;4.30;99.90
2054;DHT22;1032;52.542;13.440;2022-11-20T11:02:15;4.50;99.90
2054;DHT22;1032;52.542;13.440;2022-11-20T11:04:45;4.40;99.90
2054;DHT22;1032;52.542;13.440;2022-11-20T11:07:15;4.40;99.90
2054;DHT22;1032;52.542;13.440;2022-11-20T11:09:44;4.70;99.90
2054;DHT22;1032;52.542;13.440;2022-11-20T11:12:13;4.70;99.90
2054;DHT22;1032;52.542;13.440;2022-11-20T11:14:48;5.00;99.90
2054;DHT22;1032;52.542;13.440;2022-11-20T11:17:25;5.00;99.90
2054;DHT22;1032;52.542;13.440;2022-11-20T11:20:14;4.80;99.90
2054;DHT22;1032;52.542;13.440;2022-11-20T11:22:44;5.30;99.90
2054;DHT22;1032;52.542;13.440;2022-11-20T11:25:20;5.10;99.90
2054;DHT22;1032;52.542;13.440;2022-11-20T11:27:47;5.20;99.90
2054;DHT22;1032;52.542;13.440;2022-11-20T11:30:16;4.70;99.90
2054;DHT22;1032;52.542;13.440;2022-11-20T11:32:45;4.70;99.90
2054;DHT22;1032;52.542;13.440;2022-11-20T11:35:21;4.70;99.90
2054;DHT22;1032;52.542;13.440;2022-11-20T11:37:48;4.30;99.90
2054;DHT22;1032;52.542;13.440;2022-11-20T11:40:17;4.70;99.90
2054;DHT22;1032;52.542;13.440;2022-11-20T11:42:51;4.60;99.90
2054;DHT22;1032;52.542;13.440;2022-11-20T11:45:19;4.50;99.90
2054;DHT22;1032;52.542;13.440;2022-11-20T11:47:47;4.90;99.90
2054;DHT22;1032;52.542;13.440;2022-11-20T11:50:17;4.80;99.90
2054;DHT22;1032;52.542;13.440;2022-11-20T11:52:48;4.90;99.90
2054;DHT22;1032;52.542;13.440;2022-11-20T11:55:23;4.60;99.90
2054;DHT22;1032;52.542;13.440;2022-11-20T11:57:56;4.60;99.90
2054;DHT22;1032;52.542;13.440;2022-11-20T12:00:24;4.10;99.90
2054;DHT22;1032;52.542;13.440;2022-11-20T12:03:03;5.20;99.90
2054;DHT22;1032;52.542;13.440;2022-11-20T12:05:36;4.30;99.90
2054;DHT22;1032;52.542;13.440;2022-11-20T12:08:10;4.50;99.90
2054;DHT22;1032;52.542;13.440;2022-11-20T12:10:44;4.40;99.90
2054;DHT22;1032;52.542;13.440;2022-11-20T12:13:20;4.50;99.90
2054;DHT22;1032;52.542;13.440;2022-11-20T12:15:49;4.60;99.90
2054;DHT22;1032;52.542;13.440;2022-11-20T12:18:19;4.50;99.90
2054;DHT22;1032;52.542;13.440;2022-11-20T12:20:57;4.60;99.90
2054;DHT22;1032;52.542;13.440;2022-11-20T12:23:30;4.70;99.90
2054;DHT22;1032;52.542;13.440;2022-11-20T12:25:59;4.60;99.90
2054;DHT22;1032;52.542;13.440;2022-11-20T12:28:37;3.90;99.90
2054;DHT22;1032;52.542;13.440;2022-11-20T12:31:23;4.60;99.90
2054;DHT22;1032;52.542;13.440;2022-11-20T12:34:17;4.50;99.90
2054;DHT22;1032;52.542;13.440;2022-11-20T12:36:52;4.30;99.90
2054;DHT22;1032;52.542;13.440;2022-11-20T12:39:33;4.40;99.90
2054;DHT22;1032;52.542;13.440;2022-11-20T12:42:37;4.50;99.90
2054;DHT22;1032;52.542;13.440;2022-11-20T12:45:42;4.10;99.90
2054;DHT22;1032;52.542;13.440;2022-11-20T12:48:40;4.20;99.90
2054;DHT22;1032;52.542;13.440;2022-11-20T12:57:13;4.10;99.90
2054;DHT22;1032;52.542;13.440;2022-11-20T13:00:06;4.30;99.90
2054;DHT22;1032;52.542;13.440;2022-11-20T13:02:44;4.00;99.90
2054;DHT22;1032;52.542;13.440;2022-11-20T13:05:19;4.80;99.90
2054;DHT22;1032;52.542;13.440;2022-11-20T13:07:51;3.80;99.90
2054;DHT22;1032;52.542;13.440;2022-11-20T13:10:23;4.00;99.90
2054;DHT22;1032;52.542;13.440;2022-11-20T13:12:56;4.20;99.90
2054;DHT22;1032;52.542;13.440;2022-11-20T13:15:36;4.40;99.90
2054;DHT22;1032;52.542;13.440;2022-11-20T13:18:07;4.40;99.90
2054;DHT22;1032;52.542;13.440;2022-11-20T13:20:35;4.40;99.90
2054;DHT22;1032;52.542;13.440;2022-11-20T13:23:03;5.00;99.90
2054;DHT22;1032;52.542;13.440;2022-11-20T13:25:32;4.40;99.90
2054;DHT22;1032;52.542;13.440;2022-11-20T13:28:01;4.30;99.90
2054;DHT22;1032;52.542;13.440;2022-11-20T13:30:30;3.80;99.90
2054;DHT22;1032;52.542;13.440;2022-11-20T13:33:00;4.60;99.90
2054;DHT22;1032;52.542;13.440;2022-11-20T13:35:32;4.80;99.90
2054;DHT22;1032;52.542;13.440;2022-11-20T13:38:01;4.10;99.90
2054;DHT22;1032;52.542;13.440;2022-11-20T13:40:29;4.70;99.90
2054;DHT22;1032;52.542;13.440;2022-11-20T13:43:15;4.80;99.90
2054;DHT22;1032;52.542;13.440;2022-11-20T13:45:55;4.60;99.90
2054;DHT22;1032;52.542;13.440;2022-11-20T13:48:24;4.50;99.90
2054;DHT22;1032;52.542;13.440;2022-11-20T13:50:59;4.80;99.90
2054;DHT22;1032;52.542;13.440;2022-11-20T13:53:58;4.60;99.90
2054;DHT22;1032;52.542;13.440;2022-11-20T13:56:38;4.70;99.90
2054;DHT22;1032;52.542;13.440;2022-11-20T13:59:13;4.40;99.90
2054;DHT22;1032;52.542;13.440;2022-11-20T14:01:45;4.50;99.90
2054;DHT22;1032;52.542;13.440;2022-11-20T14:04:14;4.70;99.90
2054;DHT22;1032;52.542;13.440;2022-11-20T14:06:43;4.40;99.90
2054;DHT22;1032;52.542;13.440;2022-11-20T14:09:11;3.80;99.90
2054;DHT22;1032;52.542;13.440;2022-11-20T14:11:46;4.30;99.90
2054;DHT22;1032;52.542;13.440;2022-11-20T14:14:15;4.40;99.90
2054;DHT22;1032;52.542;13.440;2022-11-20T14:16:42;4.00;99.90
2054;DHT22;1032;52.542;13.440;2022-11-20T14:19:25;4.30;99.90
2054;DHT22;1032;52.542;13.440;2022-11-20T14:21:54;4.40;99.90
2054;DHT22;1032;52.542;13.440;2022-11-20T14:24:23;4.20;99.90
2054;DHT22;1032;52.542;13.440;2022-11-20T14:26:51;3.80;99.90
2054;DHT22;1032;52.542;13.440;2022-11-20T14:29:19;4.00;99.90
2054;DHT22;1032;52.542;13.440;2022-11-20T14:31:51;4.10;99.90
2054;DHT22;1032;52.542;13.440;2022-11-20T14:34:20;4.00;99.90
2054;DHT22;1032;52.542;13.440;2022-11-20T14:36:48;3.50;99.90
2054;DHT22;1032;52.542;13.440;2022-11-20T14:39:20;4.10;99.90
2054;DHT22;1032;52.542;13.440;2022-11-20T14:41:52;4.10;99.90
2054;DHT22;1032;52.542;13.440;2022-11-20T14:44:21;4.20;99.90
2054;DHT22;1032;52.542;13.440;2022-11-20T14:46:50;3.90;99.90
2054;DHT22;1032;52.542;13.440;2022-11-20T14:49:17;3.30;99.90
2054;DHT22;1032;52.542;13.440;2022-11-20T14:51:44;3.40;99.90
2054;DHT22;1032;52.542;13.440;2022-11-20T14:54:13;3.90;99.90
2054;DHT22;1032;52.542;13.440;2022-11-20T14:56:40;3.60;99.90
2054;DHT22;1032;52.542;13.440;2022-11-20T14:59:09;4.00;99.90
2054;DHT22;1032;52.542;13.440;2022-11-20T15:01:35;4.00;99.90
2054;DHT22;1032;52.542;13.440;2022-11-20T15:04:06;3.90;99.90
2054;DHT22;1032;52.542;13.440;2022-11-20T15:06:33;3.90;99.90
2054;DHT22;1032;52.542;13.440;2022-11-20T15:08:59;3.60;99.90
2054;DHT22;1032;52.542;13.440;2022-11-20T15:11:29;4.10;99.90
2054;DHT22;1032;52.542;13.440;2022-11-20T15:13:57;3.70;99.90
2054;DHT22;1032;52.542;13.440;2022-11-20T15:16:26;4.10;99.90
2054;DHT22;1032;52.542;13.440;2022-11-20T15:18:53;3.50;99.90
2054;DHT22;1032;52.542;13.440;2022-11-20T15:21:20;4.00;99.90
2054;DHT22;1032;52.542;13.440;2022-11-20T15:27:35;4.00;99.90
2054;DHT22;1032;52.542;13.440;2022-11-20T15:30:01;4.00;99.90
2054;DHT22;1032;52.542;13.440;2022-11-20T15:32:29;3.80;99.90
2054;DHT22;1032;52.542;13.440;2022-11-20T15:35:14;3.90;99.90
2054;DHT22;1032;52.542;13.440;2022-11-20T15:37:51;3.40;99.90
2054;DHT22;1032;52.542;13.440;2022-11-20T15:40:18;4.00;99.90
2054;DHT22;1032;52.542;13.440;2022-11-20T15:42:45;4.10;99.90
2054;DHT22;1032;52.542;13.440;2022-11-20T15:45:27;3.90;99.90
2054;DHT22;1032;52.542;13.440;2022-11-20T15:47:55;3.80;99.90
2054;DHT22;1032;52.542;13.440;2022-11-20T15:50:25;4.00;99.90
2054;DHT22;1032;52.542;13.440;2022-11-20T15:52:55;3.90;99.90
2054;DHT22;1032;52.542;13.440;2022-11-20T15:55:21;3.90;99.90
2054;DHT22;1032;52.542;13.440;2022-11-20T15:57:48;3.50;99.90
2054;DHT22;1032;52.542;13.440;2022-11-20T16:00:16;3.70;99.90
2054;DHT22;1032;52.542;13.440;2022-11-20T16:02:48;4.10;99.90
2054;DHT22;1032;52.542;13.440;2022-11-20T16:05:19;3.90;99.90
2054;DHT22;1032;52.542;13.440;2022-11-20T16:07:48;3.70;99.90
2054;DHT22;1032;52.542;13.440;2022-11-20T16:10:15;3.30;99.90
2054;DHT22;1032;52.542;13.440;2022-11-20T16:12:42;3.30;99.90
2054;DHT22;1032;52.542;13.440;2022-11-20T16:15:28;3.70;99.90
2054;DHT22;1032;52.542;13.440;2022-11-20T16:18:15;3.10;99.90
2054;DHT22;1032;52.542;13.440;2022-11-20T16:20:44;3.10;99.90
2054;DHT22;1032;52.542;13.440;2022-11-20T16:23:10;3.00;99.90
2054;DHT22;1032;52.542;13.440;2022-11-20T16:25:37;2.60;99.90
2054;DHT22;1032;52.542;13.440;2022-11-20T16:28:04;3.00;99.90
2054;DHT22;1032;52.542;13.440;2022-11-20T16:30:31;2.90;99.90
2054;DHT22;1032;52.542;13.440;2022-11-20T16:32:58;2.70;99.90